createdAt,value
2023-03-27T00:01:13.133Z,101456.72
2023-03-27T00:03:40.734Z,101474.09
2023-03-27T00:06:16.499Z,101448.09
2023-03-27T00:08:47.907Z,101507.81
2023-03-27T00:11:15.889Z,101453.22
2023-03-27T00:13:49.427Z,101463.63
2023-03-27T00:16:22.252Z,101483.59
2023-03-27T00:18:49.354Z,101522.31
2023-03-27T00:21:16.267Z,101540.34
2023-03-27T00:23:43.064Z,101518.69
2023-03-27T00:26:12.123Z,101506.47
2023-03-27T00:28:39.424Z,101553.44
2023-03-27T00:31:11.682Z,101522.97
2023-03-27T00:33:39.064Z,101526.56
2023-03-27T00:36:06.613Z,101535.81
2023-03-27T00:38:34.057Z,101560.41
2023-03-27T00:41:01.224Z,101530.88
2023-03-27T00:43:34.213Z,101564.69
2023-03-27T00:46:16.109Z,101567.44
2023-03-27T00:48:47.102Z,101515.59
2023-03-27T00:51:15.931Z,101527.63
2023-03-27T00:53:44.127Z,101568.31
2023-03-27T00:56:11.263Z,101538.97
2023-03-27T00:59:00.922Z,101565.88
2023-03-27T01:01:29.178Z,101564.09
2023-03-27T01:04:04.598Z,101558.00
2023-03-27T01:06:32.616Z,101561.47
2023-03-27T01:08:59.609Z,101527.72
2023-03-27T01:11:29.403Z,101570.34
2023-03-27T01:14:12.281Z,101565.13
2023-03-27T01:16:52.327Z,101541.44
2023-03-27T01:19:31.055Z,101580.63
2023-03-27T01:22:24.085Z,101588.38
2023-03-27T01:25:19.655Z,101552.03
2023-03-27T01:28:12.336Z,101545.91
2023-03-27T01:30:40.701Z,101582.38
2023-03-27T01:33:38.802Z,101595.28
2023-03-27T01:36:30.469Z,101597.84
2023-03-27T01:39:00.142Z,101602.13
2023-03-27T01:41:34.687Z,101566.59
2023-03-27T01:44:17.433Z,101575.88
2023-03-27T01:46:52.533Z,101552.34
2023-03-27T01:49:34.155Z,101576.78
2023-03-27T01:52:06.290Z,101606.06
2023-03-27T01:54:37.447Z,101607.78
2023-03-27T01:57:22.360Z,101612.38
2023-03-27T02:00:17.302Z,101539.53
2023-03-27T02:02:56.992Z,101562.91
2023-03-27T02:05:31.275Z,101602.06
2023-03-27T02:08:04.994Z,101527.41
2023-03-27T02:10:37.891Z,101607.13
2023-03-27T02:13:09.346Z,101571.44
2023-03-27T02:15:41.094Z,101543.56
2023-03-27T02:18:12.326Z,101576.34
2023-03-27T02:20:41.221Z,101600.88
2023-03-27T02:23:08.524Z,101544.00
2023-03-27T02:25:40.875Z,101603.03
2023-03-27T02:28:38.750Z,101602.25
2023-03-27T02:31:32.334Z,101599.38
2023-03-27T02:34:25.326Z,101592.59
2023-03-27T02:37:21.467Z,101598.63
2023-03-27T02:40:39.994Z,101590.56
2023-03-27T02:43:12.563Z,101573.25
2023-03-27T02:46:02.473Z,101551.66
2023-03-27T02:48:42.335Z,101598.47
2023-03-27T02:51:08.985Z,101601.94
2023-03-27T02:53:43.310Z,101597.38
2023-03-27T02:56:12.067Z,101563.81
2023-03-27T02:58:50.112Z,101609.88
2023-03-27T03:01:20.020Z,101606.75
2023-03-27T03:03:55.277Z,101563.41
2023-03-27T03:06:30.116Z,101605.25
2023-03-27T03:09:02.204Z,101584.44
2023-03-27T03:11:30.275Z,101622.53
2023-03-27T03:13:57.866Z,101616.34
2023-03-27T03:16:24.727Z,101618.19
2023-03-27T03:18:52.062Z,101592.25
2023-03-27T03:21:18.875Z,101599.97
2023-03-27T03:23:58.099Z,101636.44
2023-03-27T03:26:27.181Z,101594.03
2023-03-27T03:29:01.373Z,101626.97
2023-03-27T03:31:44.289Z,101599.00
2023-03-27T03:34:16.660Z,101640.81
2023-03-27T03:36:45.004Z,101594.69
2023-03-27T03:39:12.781Z,101603.16
2023-03-27T03:41:39.699Z,101599.78
2023-03-27T03:44:06.489Z,101619.66
2023-03-27T03:46:33.505Z,101640.50
2023-03-27T03:49:00.858Z,101644.81
2023-03-27T03:51:28.512Z,101560.59
2023-03-27T03:53:55.205Z,101604.97
2023-03-27T03:56:21.909Z,101572.13
2023-03-27T03:58:48.602Z,101621.38
2023-03-27T04:01:15.397Z,101610.16
2023-03-27T04:03:42.423Z,101624.28
2023-03-27T04:06:10.985Z,101616.56
2023-03-27T04:08:38.002Z,101610.72
2023-03-27T04:11:05.679Z,101612.56
2023-03-27T04:13:33.123Z,101615.13
2023-03-27T04:16:01.946Z,101658.50
2023-03-27T04:18:30.765Z,101654.84
2023-03-27T04:20:58.665Z,101601.13
2023-03-27T04:23:30.532Z,101654.03
2023-03-27T04:26:01.208Z,101578.38
2023-03-27T04:28:30.460Z,101627.78
2023-03-27T04:30:58.658Z,101635.50
2023-03-27T04:33:25.864Z,101640.63
2023-03-27T04:36:06.913Z,101642.31
2023-03-27T04:38:36.998Z,101641.19
2023-03-27T04:41:04.714Z,101628.28
2023-03-27T04:43:31.743Z,101622.22
2023-03-27T04:45:58.478Z,101633.38
2023-03-27T04:48:26.871Z,101626.38
2023-03-27T04:50:53.657Z,101620.22
2023-03-27T04:53:20.665Z,101631.28
2023-03-27T04:55:51.329Z,101675.72
2023-03-27T04:58:19.324Z,101673.91
2023-03-27T05:00:50.856Z,101621.84
2023-03-27T05:03:19.199Z,101641.63
2023-03-27T05:05:50.259Z,101679.78
2023-03-27T05:08:18.182Z,101671.09
2023-03-27T05:10:46.582Z,101639.81
2023-03-27T05:13:13.618Z,101694.44
2023-03-27T05:15:40.487Z,101658.81
2023-03-27T05:18:07.651Z,101681.31
2023-03-27T05:20:35.428Z,101697.63
2023-03-27T05:23:02.289Z,101664.00
2023-03-27T05:25:31.022Z,101694.31
2023-03-27T05:27:58.175Z,101624.66
2023-03-27T05:30:26.862Z,101652.47
2023-03-27T05:32:54.360Z,101628.22
2023-03-27T05:35:24.005Z,101677.81
2023-03-27T05:37:53.002Z,101706.44
2023-03-27T05:40:28.382Z,101668.38
2023-03-27T05:42:56.424Z,101697.75
2023-03-27T05:45:23.490Z,101701.31
2023-03-27T05:47:58.070Z,101678.31
2023-03-27T05:50:28.509Z,101714.13
2023-03-27T05:53:00.040Z,101721.69
2023-03-27T05:55:28.031Z,101682.75
2023-03-27T05:57:55.486Z,101699.19
2023-03-27T06:00:26.331Z,101694.53
2023-03-27T06:02:58.267Z,101728.47
2023-03-27T06:05:27.870Z,101724.94
2023-03-27T06:07:54.882Z,101675.53
2023-03-27T06:10:22.088Z,101664.09
2023-03-27T06:12:59.020Z,101724.84
2023-03-27T06:15:26.469Z,101725.94
2023-03-27T06:17:53.382Z,101654.44
2023-03-27T06:20:21.891Z,101690.63
2023-03-27T06:22:53.507Z,101735.25
2023-03-27T06:25:20.477Z,101715.16
2023-03-27T06:27:49.644Z,101739.94
2023-03-27T06:30:21.688Z,101738.41
2023-03-27T06:32:59.774Z,101706.03
2023-03-27T06:35:29.412Z,101745.13
2023-03-27T06:37:56.570Z,101740.91
2023-03-27T06:40:25.054Z,101677.56
2023-03-27T06:42:59.401Z,101689.06
2023-03-27T06:45:30.144Z,101746.16
2023-03-27T06:48:13.460Z,101723.00
2023-03-27T06:50:47.865Z,101742.31
2023-03-27T06:53:26.599Z,101756.72
2023-03-27T06:55:54.706Z,101737.84
2023-03-27T06:58:22.067Z,101746.38
2023-03-27T07:00:49.779Z,101763.88
2023-03-27T07:03:18.298Z,101756.31
2023-03-27T07:05:45.876Z,101760.59
2023-03-27T07:10:48.711Z,101744.94
2023-03-27T07:13:20.486Z,101754.59
2023-03-27T07:15:47.196Z,101753.66
2023-03-27T07:18:15.357Z,101733.72
2023-03-27T07:20:42.211Z,101759.81
2023-03-27T07:23:10.202Z,101766.25
2023-03-27T07:25:40.858Z,101741.88
2023-03-27T07:28:11.110Z,101754.28
2023-03-27T07:30:38.522Z,101771.63
2023-03-27T07:33:07.451Z,101768.22
2023-03-27T07:35:34.325Z,101752.66
2023-03-27T07:38:03.341Z,101763.88
2023-03-27T07:40:39.319Z,101754.38
2023-03-27T07:43:07.395Z,101767.38
2023-03-27T07:45:35.295Z,101792.50
2023-03-27T07:48:08.678Z,101787.28
2023-03-27T07:50:36.195Z,101797.72
2023-03-27T07:53:02.983Z,101765.66
2023-03-27T07:55:29.902Z,101762.16
2023-03-27T07:58:01.459Z,101764.75
2023-03-27T08:00:29.887Z,101789.03
2023-03-27T08:03:11.733Z,101786.44
2023-03-27T08:05:38.608Z,101744.81
2023-03-27T08:08:05.501Z,101749.16
2023-03-27T08:10:32.699Z,101766.50
2023-03-27T08:12:59.520Z,101740.53
2023-03-27T08:15:26.333Z,101745.63
2023-03-27T08:17:55.324Z,101789.00
2023-03-27T08:20:24.260Z,101781.19
2023-03-27T08:22:52.905Z,101788.13
2023-03-27T08:25:22.586Z,101764.69
2023-03-27T08:27:49.890Z,101791.53
2023-03-27T08:30:17.422Z,101786.25
2023-03-27T08:32:44.845Z,101775.06
2023-03-27T08:35:12.409Z,101764.53
2023-03-27T08:37:39.816Z,101773.69
2023-03-27T08:40:13.653Z,101747.59
2023-03-27T08:42:44.140Z,101792.13
2023-03-27T08:45:18.643Z,101767.78
2023-03-27T08:47:58.275Z,101782.78
2023-03-27T08:50:33.669Z,101781.84
2023-03-27T08:53:02.850Z,101776.63
2023-03-27T08:55:47.734Z,101734.34
2023-03-27T08:58:23.301Z,101770.22
2023-03-27T09:01:15.562Z,101776.38
2023-03-27T09:03:43.046Z,101791.88
2023-03-27T09:06:40.075Z,101780.13
2023-03-27T09:09:39.289Z,101795.50
2023-03-27T09:12:26.454Z,101772.00
2023-03-27T09:14:58.690Z,101786.84
2023-03-27T09:17:34.343Z,101794.59
2023-03-27T09:20:24.175Z,101798.78
2023-03-27T09:22:58.137Z,101801.47
2023-03-27T09:25:41.250Z,101790.56
2023-03-27T09:28:24.102Z,101778.31
2023-03-27T09:30:51.198Z,101772.44
2023-03-27T09:33:18.041Z,101784.50
2023-03-27T09:35:44.972Z,101734.94
2023-03-27T09:38:39.414Z,101729.13
2023-03-27T09:41:15.604Z,101750.72
2023-03-27T09:44:10.505Z,101726.50
2023-03-27T09:46:43.118Z,101782.78
2023-03-27T09:49:15.552Z,101779.03
2023-03-27T09:51:46.856Z,101774.94
2023-03-27T09:54:16.939Z,101786.25
2023-03-27T09:56:47.938Z,101765.59
2023-03-27T09:59:28.897Z,101794.94
2023-03-27T10:01:59.190Z,101775.72
2023-03-27T10:04:27.824Z,101777.41
2023-03-27T10:07:08.287Z,101782.63
2023-03-27T10:09:37.619Z,101788.66
2023-03-27T10:12:07.645Z,101780.53
2023-03-27T10:14:43.704Z,101783.16
2023-03-27T10:17:26.369Z,101766.75
2023-03-27T10:20:00.267Z,101708.78
2023-03-27T10:22:38.029Z,101716.63
2023-03-27T10:25:16.510Z,101719.28
2023-03-27T10:27:43.932Z,101750.97
2023-03-27T10:30:33.628Z,101765.06
2023-03-27T10:33:00.554Z,101748.47
2023-03-27T10:35:36.182Z,101767.78
2023-03-27T10:38:10.867Z,101771.16
2023-03-27T10:40:39.752Z,101772.47
2023-03-27T10:43:12.890Z,101716.44
2023-03-27T10:45:59.866Z,101780.47
2023-03-27T10:48:38.773Z,101788.88
2023-03-27T10:51:13.263Z,101748.94
2023-03-27T10:53:51.139Z,101751.94
2023-03-27T10:56:29.503Z,101708.09
2023-03-27T10:59:11.473Z,101778.38
2023-03-27T11:01:43.681Z,101719.47
2023-03-27T11:04:32.211Z,101766.69
2023-03-27T11:07:03.384Z,101749.41
2023-03-27T11:09:36.542Z,101733.06
2023-03-27T11:12:22.639Z,101753.91
2023-03-27T11:15:09.935Z,101780.03
2023-03-27T11:17:44.159Z,101746.16
2023-03-27T11:20:23.320Z,101783.75
2023-03-27T11:23:00.412Z,101739.16
2023-03-27T11:25:29.956Z,101784.38
2023-03-27T11:28:14.041Z,101718.84
2023-03-27T11:30:46.661Z,101748.09
2023-03-27T11:33:28.431Z,101779.66
2023-03-27T11:36:11.801Z,101739.78
2023-03-27T11:38:41.372Z,101790.03
2023-03-27T11:41:14.656Z,101737.91
2023-03-27T11:43:42.217Z,101746.72
2023-03-27T11:46:40.045Z,101787.84
2023-03-27T11:49:32.238Z,101756.03
2023-03-27T11:52:12.008Z,101776.81
2023-03-27T11:54:57.970Z,101767.84
2023-03-27T11:57:27.149Z,101719.38
2023-03-27T12:00:22.043Z,101762.25
2023-03-27T12:03:10.659Z,101762.66
2023-03-27T12:06:02.245Z,101770.06
2023-03-27T12:08:55.652Z,101768.28
2023-03-27T12:11:25.670Z,101693.16
2023-03-27T12:14:00.947Z,101768.31
2023-03-27T12:16:48.111Z,101692.69
2023-03-27T12:19:29.576Z,101768.16
2023-03-27T12:22:43.808Z,101730.50
2023-03-27T12:25:40.170Z,101776.56
2023-03-27T12:28:28.613Z,101767.84
2023-03-27T12:31:04.240Z,101721.31
2023-03-27T12:34:04.640Z,101771.75
2023-03-27T12:36:37.697Z,101728.84
2023-03-27T12:39:24.559Z,101689.16
2023-03-27T12:41:51.957Z,101725.78
2023-03-27T12:44:30.199Z,101726.75
2023-03-27T12:47:09.064Z,101768.91
2023-03-27T12:49:56.017Z,101726.28
2023-03-27T12:52:25.446Z,101725.44
2023-03-27T12:55:18.593Z,101756.88
2023-03-27T12:57:47.181Z,101731.00
2023-03-27T13:00:25.738Z,101756.56
2023-03-27T13:03:30.070Z,101753.88
2023-03-27T13:06:15.740Z,101760.69
2023-03-27T13:09:08.354Z,101751.88
2023-03-27T13:12:02.809Z,101753.69
2023-03-27T13:14:55.900Z,101700.31
2023-03-27T13:17:34.615Z,101747.03
2023-03-27T13:20:16.607Z,101744.81
2023-03-27T13:23:06.076Z,101683.69
2023-03-27T13:25:42.677Z,101729.22
2023-03-27T13:28:24.561Z,101742.91
2023-03-27T13:30:54.799Z,101696.03
2023-03-27T13:33:39.258Z,101733.41
2023-03-27T13:36:14.655Z,101732.38
2023-03-27T13:38:53.771Z,101734.56
2023-03-27T13:41:45.314Z,101733.06
2023-03-27T13:44:22.603Z,101731.38
2023-03-27T13:46:56.342Z,101730.38
2023-03-27T13:49:52.508Z,101699.63
2023-03-27T13:53:06.698Z,101717.97
2023-03-27T13:55:48.588Z,101724.25
2023-03-27T13:58:21.055Z,101720.25
2023-03-27T14:00:55.778Z,101689.75
2023-03-27T14:03:32.001Z,101725.00
2023-03-27T14:06:36.204Z,101712.00
2023-03-27T14:09:18.051Z,101714.00
2023-03-27T14:11:50.904Z,101707.28
2023-03-27T14:14:42.160Z,101703.84
2023-03-27T14:17:21.874Z,101649.78
2023-03-27T14:20:11.281Z,101665.78
2023-03-27T14:22:59.300Z,101667.97
2023-03-27T14:25:34.955Z,101642.88
2023-03-27T14:28:01.806Z,101652.03
2023-03-27T14:30:33.603Z,101628.16
2023-03-27T14:33:08.108Z,101666.00
2023-03-27T14:35:40.018Z,101670.56
2023-03-27T14:38:14.575Z,101643.88
2023-03-27T14:40:53.201Z,101695.50
2023-03-27T14:43:22.077Z,101697.97
2023-03-27T14:45:54.503Z,101679.94
2023-03-27T14:48:27.329Z,101676.94
2023-03-27T14:50:58.122Z,101649.66
2023-03-27T14:53:31.425Z,101634.47
2023-03-27T14:56:00.435Z,101676.09
2023-03-27T14:58:27.927Z,101610.53
2023-03-27T15:00:58.386Z,101667.56
2023-03-27T15:03:27.513Z,101651.91
2023-03-27T15:06:02.063Z,101614.47
2023-03-27T15:08:33.702Z,101595.63
2023-03-27T15:11:00.968Z,101597.09
2023-03-27T15:13:34.400Z,101618.66
2023-03-27T15:16:03.110Z,101629.81
2023-03-27T15:18:34.169Z,101636.06
2023-03-27T15:21:06.461Z,101600.72
2023-03-27T15:24:00.953Z,101622.31
2023-03-27T15:26:31.760Z,101604.06
2023-03-27T15:29:04.085Z,101648.09
2023-03-27T15:31:33.116Z,101575.41
2023-03-27T15:34:09.118Z,101628.38
2023-03-27T15:36:38.099Z,101598.03
2023-03-27T15:39:07.395Z,101584.41
2023-03-27T15:41:35.138Z,101632.72
2023-03-27T15:44:13.224Z,101624.91
2023-03-27T15:46:54.117Z,101599.72
2023-03-27T15:49:22.604Z,101539.81
2023-03-27T15:51:49.366Z,101561.28
2023-03-27T15:54:53.658Z,101609.06
2023-03-27T15:57:20.427Z,101586.72
2023-03-27T15:59:52.099Z,101559.88
2023-03-27T16:02:21.759Z,101542.53
2023-03-27T16:04:56.295Z,101596.78
2023-03-27T16:07:47.385Z,101582.97
2023-03-27T16:10:29.028Z,101522.88
2023-03-27T16:12:58.492Z,101584.69
2023-03-27T16:15:41.915Z,101537.28
2023-03-27T16:18:19.260Z,101538.00
2023-03-27T16:20:46.119Z,101520.81
2023-03-27T16:23:12.837Z,101546.06
2023-03-27T16:25:41.368Z,101533.19
2023-03-27T16:28:09.657Z,101524.50
2023-03-27T16:30:42.364Z,101573.72
2023-03-27T16:33:15.839Z,101527.09
2023-03-27T16:35:44.305Z,101499.59
2023-03-27T16:38:11.944Z,101495.84
2023-03-27T16:40:38.655Z,101523.41
2023-03-27T16:43:05.436Z,101539.88
2023-03-27T16:45:32.353Z,101563.19
2023-03-27T16:47:59.253Z,101538.25
2023-03-27T16:50:28.269Z,101546.88
2023-03-27T16:52:55.190Z,101516.59
2023-03-27T16:55:22.038Z,101505.16
2023-03-27T16:57:48.932Z,101553.69
2023-03-27T17:00:16.701Z,101547.25
2023-03-27T17:02:44.628Z,101523.41
2023-03-27T17:05:11.661Z,101507.13
2023-03-27T17:07:38.745Z,101496.97
2023-03-27T17:10:06.054Z,101512.28
2023-03-27T17:12:32.759Z,101486.78
2023-03-27T17:14:59.433Z,101492.56
2023-03-27T17:17:27.682Z,101497.78
2023-03-27T17:19:54.563Z,101506.97
2023-03-27T17:22:21.620Z,101503.78
2023-03-27T17:24:56.803Z,101476.41
2023-03-27T17:27:26.657Z,101497.72
2023-03-27T17:29:56.279Z,101500.38
2023-03-27T17:32:28.231Z,101536.94
2023-03-27T17:34:55.384Z,101517.91
2023-03-27T17:37:23.446Z,101536.84
2023-03-27T17:39:50.489Z,101539.75
2023-03-27T17:42:17.560Z,101516.41
2023-03-27T17:44:45.497Z,101537.81
2023-03-27T17:47:12.922Z,101506.13
2023-03-27T17:49:40.919Z,101484.66
2023-03-27T17:52:12.037Z,101487.19
2023-03-27T17:54:39.396Z,101533.16
2023-03-27T17:57:06.606Z,101478.06
2023-03-27T17:59:33.650Z,101482.47
2023-03-27T18:02:00.580Z,101474.19
2023-03-27T18:04:27.686Z,101487.09
2023-03-27T18:06:54.428Z,101480.13
2023-03-27T18:09:21.462Z,101475.78
2023-03-27T18:11:48.216Z,101526.03
2023-03-27T18:14:15.071Z,101514.72
2023-03-27T18:16:41.882Z,101489.78
2023-03-27T18:19:09.272Z,101513.97
2023-03-27T18:21:36.226Z,101445.03
2023-03-27T18:24:03.132Z,101438.94
2023-03-27T18:26:29.992Z,101439.81
2023-03-27T18:28:57.830Z,101514.13
2023-03-27T18:31:24.808Z,101439.91
2023-03-27T18:33:51.597Z,101428.97
2023-03-27T18:42:55.758Z,101496.16
2023-03-27T18:45:22.435Z,101472.97
2023-03-27T18:47:49.224Z,101436.66
2023-03-27T18:50:17.448Z,101449.63
2023-03-27T18:52:44.397Z,101462.69
2023-03-27T18:55:13.146Z,101447.19
2023-03-27T18:57:40.313Z,101489.50
2023-03-27T19:00:09.571Z,101439.38
2023-03-27T19:02:39.324Z,101452.28
2023-03-27T19:05:06.671Z,101445.41
2023-03-27T19:07:33.498Z,101422.13
2023-03-27T19:10:00.447Z,101442.81
2023-03-27T19:12:27.271Z,101460.97
2023-03-27T19:14:54.068Z,101444.59
2023-03-27T19:17:21.172Z,101499.00
2023-03-27T19:19:47.989Z,101447.19
2023-03-27T19:22:14.970Z,101485.19
2023-03-27T19:24:42.587Z,101435.06
2023-03-27T19:27:23.093Z,101427.31
2023-03-27T19:29:50.168Z,101433.44
2023-03-27T19:32:17.031Z,101426.47
2023-03-27T19:34:44.104Z,101445.50
2023-03-27T19:37:11.271Z,101437.75
2023-03-27T19:39:38.054Z,101469.69
2023-03-27T19:42:05.062Z,101436.06
2023-03-27T19:44:31.893Z,101408.44
2023-03-27T19:46:58.926Z,101423.13
2023-03-27T19:49:26.604Z,101461.09
2023-03-27T19:51:53.361Z,101443.84
2023-03-27T19:54:20.085Z,101420.53
2023-03-27T19:56:46.959Z,101404.94
2023-03-27T19:59:24.100Z,101427.41
2023-03-27T20:01:56.949Z,101431.75
2023-03-27T20:04:23.742Z,101390.28
2023-03-27T20:06:50.437Z,101381.63
2023-03-27T20:09:17.250Z,101454.22
2023-03-27T20:11:44.063Z,101407.59
2023-03-27T20:14:11.566Z,101448.13
2023-03-27T20:16:41.594Z,101443.84
2023-03-27T20:19:09.471Z,101436.94
2023-03-27T20:21:40.459Z,101449.91
2023-03-27T20:24:09.992Z,101417.97
2023-03-27T20:26:41.612Z,101382.56
2023-03-27T20:29:14.072Z,101389.44
2023-03-27T20:31:41.245Z,101401.53
2023-03-27T20:34:09.029Z,101434.34
2023-03-27T20:36:36.210Z,101400.69
2023-03-27T20:39:06.737Z,101440.34
2023-03-27T20:41:34.682Z,101410.13
2023-03-27T20:44:02.906Z,101425.69
2023-03-27T20:46:30.696Z,101354.91
2023-03-27T20:48:57.734Z,101370.47
2023-03-27T20:51:25.060Z,101356.63
2023-03-27T20:53:55.996Z,101388.56
2023-03-27T20:56:24.043Z,101385.09
2023-03-27T20:58:51.646Z,101347.09
2023-03-27T21:01:27.401Z,101402.38
2023-03-27T21:03:58.548Z,101384.25
2023-03-27T21:06:25.952Z,101348.00
2023-03-27T21:08:52.713Z,101341.09
2023-03-27T21:11:19.406Z,101328.13
2023-03-27T21:13:46.122Z,101328.13
2023-03-27T21:16:12.835Z,101359.22
2023-03-27T21:18:39.623Z,101361.81
2023-03-27T21:21:06.488Z,101343.66
2023-03-27T21:23:34.650Z,101382.56
2023-03-27T21:26:01.753Z,101359.25
2023-03-27T21:28:28.672Z,101376.50
2023-03-27T21:30:55.422Z,101339.34
2023-03-27T21:33:22.303Z,101345.44
2023-03-27T21:35:49.627Z,101316.91
2023-03-27T21:38:17.819Z,101278.94
2023-03-27T21:40:46.941Z,101376.47
2023-03-27T21:43:13.984Z,101350.59
2023-03-27T21:45:40.852Z,101333.34
2023-03-27T21:48:07.703Z,101322.94
2023-03-27T21:50:34.472Z,101326.41
2023-03-27T21:53:01.202Z,101282.41
2023-03-27T21:55:27.940Z,101329.88
2023-03-27T21:57:54.743Z,101321.22
2023-03-27T22:00:21.484Z,101311.75
2023-03-27T22:02:48.380Z,101266.84
2023-03-27T22:05:15.178Z,101272.03
2023-03-27T22:07:41.916Z,101305.69
2023-03-27T22:10:09.152Z,101301.38
2023-03-27T22:12:37.362Z,101306.53
2023-03-27T22:15:07.068Z,101323.84
2023-03-27T22:17:36.732Z,101309.16
2023-03-27T22:20:07.854Z,101298.78
2023-03-27T22:22:35.607Z,101276.34
2023-03-27T22:25:02.687Z,101296.19
2023-03-27T22:27:29.967Z,101279.78
2023-03-27T22:29:56.822Z,101272.03
2023-03-27T22:32:23.764Z,101297.94
2023-03-27T22:34:50.624Z,101281.50
2023-03-27T22:37:17.740Z,101310.88
2023-03-27T22:39:44.502Z,101242.69
2023-03-27T22:42:11.439Z,101254.75
2023-03-27T22:44:38.372Z,101287.56
2023-03-27T22:47:05.092Z,101292.75
2023-03-27T22:49:31.833Z,101266.84
2023-03-27T22:51:58.595Z,101244.41
2023-03-27T22:54:25.528Z,101211.63
2023-03-27T22:56:55.312Z,101235.78
2023-03-27T22:59:22.272Z,101245.28
2023-03-27T23:01:49.096Z,101221.13
2023-03-27T23:04:15.925Z,101263.41
2023-03-27T23:06:42.650Z,101229.75
2023-03-27T23:09:09.982Z,101225.44
2023-03-27T23:11:36.678Z,101195.25
2023-03-27T23:14:03.429Z,101236.63
2023-03-27T23:16:30.182Z,101224.56
2023-03-27T23:18:56.923Z,101221.09
2023-03-27T23:21:23.685Z,101208.16
2023-03-27T23:23:50.367Z,101230.56
2023-03-27T23:26:18.376Z,101212.47
2023-03-27T23:28:45.433Z,101236.63
2023-03-27T23:31:15.746Z,101214.19
2023-03-27T23:33:45.364Z,101164.16
2023-03-27T23:36:14.668Z,101135.72
2023-03-27T23:38:42.217Z,101207.28
2023-03-27T23:41:11.255Z,101193.47
2023-03-27T23:43:38.196Z,101143.47
2023-03-27T23:46:08.711Z,101125.38
2023-03-27T23:48:35.510Z,101163.31
2023-03-27T23:51:02.811Z,101191.78
2023-03-27T23:53:30.355Z,101119.31
2023-03-27T23:55:59.314Z,101179.66
2023-03-27T23:58:32.854Z,101166.72
